Aviation Digital Data Service (ADDS)

Output produced by TAFs form (2118 UTC 24 October 2014)
found at http://aviationweather.gov/adds/tafs/
 
KMAF 241720Z 2418/2518 21010KT P6SM SKC